Time;durP1;ratioP1;P1;durP2;ratioP2;P2;SDS_P1;SDS_P2;PMS_P1;PMS_P2;Temp;Humidity;BMP_temperature;BMP_pressure;BME280_temperature;BME280_humidity;BME280_pressure;Samples;Min_cycle;Max_cycle;Signal;HPM_P1;HPM_P2
2021/01/18 00:02:10;;;;;;;23.17;5.67;;;;;;;;;;5093277;28;20091;-58
2021/01/18 00:04:35;;;;;;;29.20;7.13;;;;;;;;;;5092830;28;20036;-58
2021/01/18 00:07:07;;;;;;;25.50;6.27;;;;;;;;;;5092260;28;20048;-58
2021/01/18 00:09:33;;;;;;;23.95;5.95;;;;;;;;;;5092728;28;20105;-58
2021/01/18 00:11:59;;;;;;;24.52;4.63;;;;;;;;;;5091711;28;20018;-58
2021/01/18 00:14:25;;;;;;;14.87;4.80;;;;;;;;;;5092388;28;20032;-58
2021/01/18 00:16:50;;;;;;;26.57;6.30;;;;;;;;;;5091423;28;20658;-57
2021/01/18 00:19:15;;;;;;;15.00;5.07;;;;;;;;;;5091329;28;20471;-58
2021/01/18 00:21:47;;;;;;;23.87;4.93;;;;;;;;;;5091580;28;20467;-57
2021/01/18 00:24:12;;;;;;;21.48;5.78;;;;;;;;;;5091057;28;20046;-58
2021/01/18 00:26:38;;;;;;;13.23;4.20;;;;;;;;;;5090894;28;20031;-58
2021/01/18 00:29:03;;;;;;;25.30;5.87;;;;;;;;;;5092003;28;20024;-57
2021/01/18 00:31:28;;;;;;;30.63;5.77;;;;;;;;;;5092154;28;20467;-57
2021/01/18 00:33:54;;;;;;;35.60;7.10;;;;;;;;;;5091297;28;20036;-56
2021/01/18 00:36:19;;;;;;;24.80;5.43;;;;;;;;;;5091537;28;20421;-56
2021/01/18 00:38:44;;;;;;;16.93;4.67;;;;;;;;;;5089930;28;20024;-57
2021/01/18 00:41:10;;;;;;;37.43;7.83;;;;;;;;;;5075273;28;20028;-59
2021/01/18 00:43:35;;;;;;;16.67;4.77;;;;;;;;;;5092390;28;20036;-58
2021/01/18 00:46:01;;;;;;;26.43;5.77;;;;;;;;;;5092603;28;20024;-57
2021/01/18 00:48:26;;;;;;;14.20;4.97;;;;;;;;;;5095442;28;20494;-59
2021/01/18 00:50:52;;;;;;;26.60;5.53;;;;;;;;;;5092730;28;20056;-55
2021/01/18 00:53:18;;;;;;;24.17;5.57;;;;;;;;;;5092279;28;20036;-56
2021/01/18 00:55:45;;;;;;;19.35;5.43;;;;;;;;;;5090369;28;20744;-57
2021/01/18 00:58:33;;;;;;;29.10;6.60;;;;;;;;;;5093120;28;20047;-58
2021/01/18 01:01:14;;;;;;;20.73;5.20;;;;;;;;;;5092811;28;20028;-58
2021/01/18 01:03:40;;;;;;;20.85;4.57;;;;;;;;;;5090768;28;20050;-57
2021/01/18 01:06:05;;;;;;;19.60;4.80;;;;;;;;;;5090885;28;20052;-57
2021/01/18 01:08:30;;;;;;;22.87;5.10;;;;;;;;;;5091781;28;20039;-57
2021/01/18 01:10:56;;;;;;;12.13;4.03;;;;;;;;;;5089933;28;20114;-58
2021/01/18 01:13:21;;;;;;;17.43;4.77;;;;;;;;;;5090584;28;20032;-58
2021/01/18 01:15:47;;;;;;;17.43;4.70;;;;;;;;;;5089849;28;20081;-58
2021/01/18 01:18:12;;;;;;;18.07;4.50;;;;;;;;;;5090644;28;20387;-57
2021/01/18 01:20:37;;;;;;;18.53;5.00;;;;;;;;;;5091057;28;20103;-58
2021/01/18 01:23:03;;;;;;;20.57;5.83;;;;;;;;;;5089314;28;20843;-57
2021/01/18 01:25:28;;;;;;;11.23;4.57;;;;;;;;;;5082831;28;20124;-58
2021/01/18 01:27:54;;;;;;;18.27;6.03;;;;;;;;;;5069463;28;20028;-58
2021/01/18 01:30:23;;;;;;;27.40;8.05;;;;;;;;;;5071539;28;20042;-59
2021/01/18 01:32:49;;;;;;;25.90;6.30;;;;;;;;;;5069395;28;20567;-56
2021/01/18 01:35:19;;;;;;;22.52;5.88;;;;;;;;;;5070013;28;20032;-58
2021/01/18 01:37:45;;;;;;;21.58;6.53;;;;;;;;;;5071392;28;20033;-58
2021/01/18 01:40:11;;;;;;;27.00;7.87;;;;;;;;;;5070483;28;20033;-58
2021/01/18 01:42:37;;;;;;;23.30;7.03;;;;;;;;;;5071339;28;20031;-59
2021/01/18 01:45:04;;;;;;;17.60;7.00;;;;;;;;;;5070255;28;20040;-58
2021/01/18 01:47:29;;;;;;;;;;;;;;;;;;5071765;28;20131;-59
2021/01/18 01:49:54;;;;;;;28.07;9.30;;;;;;;;;;5073437;28;20423;-58
2021/01/18 01:52:24;;;;;;;19.05;7.82;;;;;;;;;;5074758;28;20036;-58
2021/01/18 01:54:51;;;;;;;22.52;8.43;;;;;;;;;;5072871;28;20091;-56
2021/01/18 01:57:17;;;;;;;20.60;7.45;;;;;;;;;;5056983;28;20518;-58
2021/01/18 01:59:43;;;;;;;19.60;7.72;;;;;;;;;;5074920;28;20036;-57
2021/01/18 02:02:08;;;;;;;31.90;8.02;;;;;;;;;;5072840;28;20456;-59
2021/01/18 02:04:34;;;;;;;35.80;8.63;;;;;;;;;;5056652;28;20040;-58
2021/01/18 02:07:19;;;;;;;33.65;8.93;;;;;;;;;;5073741;28;20130;-57
2021/01/18 02:09:44;;;;;;;22.13;8.38;;;;;;;;;;5073481;28;20028;-57
2021/01/18 02:12:09;;;;;;;16.40;6.07;;;;;;;;;;5073951;28;20100;-57
2021/01/18 02:14:43;;;;;;;29.90;8.27;;;;;;;;;;5073073;28;20068;-57
2021/01/18 02:17:24;;;;;;;25.30;6.72;;;;;;;;;;5055689;28;20028;-56
2021/01/18 02:20:13;;;;;;;23.33;7.90;;;;;;;;;;5073098;28;20031;-56
2021/01/18 02:22:38;;;;;;;35.22;8.88;;;;;;;;;;5073017;28;20051;-58
2021/01/18 02:25:07;;;;;;;25.43;8.00;;;;;;;;;;5072068;28;20040;-58
2021/01/18 02:27:50;;;;;;;28.33;7.20;;;;;;;;;;5072876;28;20078;-56
2021/01/18 02:30:45;;;;;;;33.40;8.43;;;;;;;;;;5072072;28;20032;-59
2021/01/18 02:33:27;;;;;;;25.60;8.13;;;;;;;;;;5018429;28;20046;-59
2021/01/18 02:35:56;;;;;;;34.38;8.75;;;;;;;;;;5072479;28;20044;-58
2021/01/18 02:38:29;;;;;;;35.22;8.38;;;;;;;;;;5072759;28;20468;-57
2021/01/18 02:41:00;;;;;;;26.45;9.35;;;;;;;;;;5071950;28;20477;-56
2021/01/18 02:43:28;;;;;;;35.22;7.88;;;;;;;;;;5073679;28;20036;-58
2021/01/18 02:45:55;;;;;;;24.30;8.30;;;;;;;;;;5072180;28;20434;-59
2021/01/18 02:48:20;;;;;;;;;;;;;;;;;;5074315;28;20029;-58
2021/01/18 02:50:47;;;;;;;25.30;7.33;;;;;;;;;;5073755;28;19920;-57
2021/01/18 02:53:12;;;;;;;;;;;;;;;;;;5073922;28;20055;-58
2021/01/18 02:55:37;;;;;;;23.53;7.50;;;;;;;;;;5072570;28;19994;-57
2021/01/18 02:58:03;;;;;;;27.43;7.80;;;;;;;;;;5071735;28;20124;-56
2021/01/18 03:00:32;;;;;;;20.42;6.28;;;;;;;;;;5073028;28;20124;-56
2021/01/18 03:03:00;;;;;;;25.00;7.38;;;;;;;;;;5071584;28;20033;-56
2021/01/18 03:05:37;;;;;;;17.17;7.32;;;;;;;;;;5071944;28;20086;-59
2021/01/18 03:08:09;;;;;;;28.33;9.10;;;;;;;;;;5071507;28;20055;-58
2021/01/18 03:10:42;;;;;;;28.98;9.05;;;;;;;;;;5073298;28;20024;-56
2021/01/18 03:13:19;;;;;;;30.33;7.35;;;;;;;;;;5072208;28;20044;-58
2021/01/18 03:15:44;;;;;;;;;;;;;;;;;;5072400;28;20031;-58
2021/01/18 03:18:11;;;;;;;23.60;6.97;;;;;;;;;;5072091;28;19995;-58
2021/01/18 03:20:37;;;;;;;27.67;8.00;;;;;;;;;;5073197;28;20472;-57
2021/01/18 03:23:06;;;;;;;23.27;7.82;;;;;;;;;;5072335;28;20032;-58
2021/01/18 03:25:32;;;;;;;26.90;8.07;;;;;;;;;;5071819;28;20136;-58
2021/01/18 03:27:57;;;;;;;33.17;9.13;;;;;;;;;;5071234;28;20055;-58
2021/01/18 03:30:23;;;;;;;33.87;8.57;;;;;;;;;;5071502;28;20033;-57
2021/01/18 03:32:49;;;;;;;30.60;8.73;;;;;;;;;;5072053;28;20033;-58
2021/01/18 03:35:15;;;;;;;26.10;9.13;;;;;;;;;;5072609;28;20036;-58
2021/01/18 03:37:40;;;;;;;23.73;7.67;;;;;;;;;;5054993;28;20480;-58
2021/01/18 03:40:06;;;;;;;21.17;8.30;;;;;;;;;;5070750;28;20028;-57
2021/01/18 03:42:32;;;;;;;21.08;8.43;;;;;;;;;;5071954;28;20392;-58
2021/01/18 03:44:57;;;;;;;21.23;7.67;;;;;;;;;;5054264;28;20043;-58
2021/01/18 03:47:22;;;;;;;28.53;9.37;;;;;;;;;;5071070;28;20024;-59
2021/01/18 03:49:48;;;;;;;28.60;8.13;;;;;;;;;;5071426;28;20024;-58
2021/01/18 03:52:13;;;;;;;27.83;11.27;;;;;;;;;;5054176;28;20032;-59
2021/01/18 03:54:38;;;;;;;38.73;9.30;;;;;;;;;;5071131;28;20036;-56
2021/01/18 03:57:04;;;;;;;28.87;10.10;;;;;;;;;;5070244;28;20033;-57
2021/01/18 03:59:29;;;;;;;25.47;8.73;;;;;;;;;;5072492;28;20032;-55
2021/01/18 04:01:55;;;;;;;35.43;9.33;;;;;;;;;;5072641;28;20266;-57
2021/01/18 04:04:20;;;;;;;43.03;11.07;;;;;;;;;;5070228;28;20090;-57
2021/01/18 04:06:46;;;;;;;27.07;8.97;;;;;;;;;;5070908;28;20090;-58
2021/01/18 04:09:11;;;;;;;38.83;12.03;;;;;;;;;;5070086;28;20047;-56
2021/01/18 04:11:37;;;;;;;46.30;11.70;;;;;;;;;;5070656;28;20457;-58
2021/01/18 04:14:02;;;;;;;29.87;11.87;;;;;;;;;;5071619;28;20033;-55
2021/01/18 04:16:27;;;;;;;38.03;11.73;;;;;;;;;;5070890;28;20025;-59
2021/01/18 04:18:53;;;;;;;32.77;11.07;;;;;;;;;;5071912;28;20038;-57
2021/01/18 04:21:18;;;;;;;37.27;11.90;;;;;;;;;;5069816;28;20024;-56
2021/01/18 04:23:44;;;;;;;37.27;11.47;;;;;;;;;;5070906;28;20040;-57
2021/01/18 04:26:09;;;;;;;39.60;12.90;;;;;;;;;;5071267;28;20024;-58
2021/01/18 04:28:35;;;;;;;31.03;8.70;;;;;;;;;;5072444;28;20293;-58
2021/01/18 04:31:01;;;;;;;34.47;11.18;;;;;;;;;;5071432;28;20116;-56
2021/01/18 04:33:26;;;;;;;41.77;11.90;;;;;;;;;;5071187;28;20032;-58
2021/01/18 04:35:54;;;;;;;33.80;10.93;;;;;;;;;;5071643;28;20032;-57
2021/01/18 04:38:19;;;;;;;37.63;11.82;;;;;;;;;;5070891;28;20024;-57
2021/01/18 04:40:45;;;;;;;33.20;13.17;;;;;;;;;;5070803;28;20039;-58
2021/01/18 04:43:12;;;;;;;36.70;11.53;;;;;;;;;;5070947;28;20107;-57
2021/01/18 04:45:38;;;;;;;34.65;11.43;;;;;;;;;;5071637;28;20036;-59
2021/01/18 04:48:03;;;;;;;34.73;11.73;;;;;;;;;;5071358;28;20036;-59
2021/01/18 04:50:30;;;;;;;40.47;11.50;;;;;;;;;;5070051;28;20036;-58
2021/01/18 04:52:56;;;;;;;35.35;10.63;;;;;;;;;;5071871;28;20469;-59
2021/01/18 04:55:26;;;;;;;39.47;11.98;;;;;;;;;;5070951;28;20025;-58
2021/01/18 04:58:11;;;;;;;56.22;15.50;;;;;;;;;;5071844;28;20078;-58
2021/01/18 05:00:36;;;;;;;57.38;14.15;;;;;;;;;;5070685;28;20056;-57
2021/01/18 05:03:06;;;;;;;31.63;10.60;;;;;;;;;;5071515;28;20059;-58
2021/01/18 05:05:38;;;;;;;53.20;13.32;;;;;;;;;;5069566;28;20028;-56
2021/01/18 05:08:05;;;;;;;42.92;11.70;;;;;;;;;;5072725;28;20028;-56
2021/01/18 05:10:31;;;;;;;35.35;13.48;;;;;;;;;;5071383;28;20047;-57
2021/01/18 05:12:57;;;;;;;37.72;11.98;;;;;;;;;;5070450;28;20033;-57
2021/01/18 05:15:23;;;;;;;34.90;10.80;;;;;;;;;;5069372;28;20106;-57
2021/01/18 05:17:49;;;;;;;40.75;13.25;;;;;;;;;;5070277;28;20029;-57
2021/01/18 05:20:18;;;;;;;35.75;10.55;;;;;;;;;;5070504;28;20035;-58
2021/01/18 05:22:44;;;;;;;41.53;11.63;;;;;;;;;;5071224;28;20025;-58
2021/01/18 05:25:12;;;;;;;38.17;11.65;;;;;;;;;;5072934;28;20138;-58
2021/01/18 05:27:56;;;;;;;33.13;10.93;;;;;;;;;;5057367;28;20037;-59
2021/01/18 05:30:22;;;;;;;37.63;11.82;;;;;;;;;;5056574;28;20120;-58
2021/01/18 05:32:58;;;;;;;25.08;11.43;;;;;;;;;;5075474;28;20122;-57
2021/01/18 05:35:24;;;;;;;31.98;11.43;;;;;;;;;;5073512;28;20037;-61
2021/01/18 05:37:59;;;;;;;45.70;14.23;;;;;;;;;;5075513;28;20028;-57
2021/01/18 05:40:25;;;;;;;41.15;11.43;;;;;;;;;;5074478;28;20033;-58
2021/01/18 05:42:51;;;;;;;45.63;12.82;;;;;;;;;;5075078;28;20029;-58
2021/01/18 05:45:27;;;;;;;32.63;9.80;;;;;;;;;;5073034;28;20546;-57
2021/01/18 05:47:53;;;;;;;33.58;10.88;;;;;;;;;;5074532;28;20503;-57
2021/01/18 05:50:19;;;;;;;32.30;12.35;;;;;;;;;;5075302;28;20030;-59
2021/01/18 05:52:44;;;;;;;42.80;12.35;;;;;;;;;;5075311;28;20028;-59
2021/01/18 05:55:16;;;;;;;44.33;11.70;;;;;;;;;;5074060;28;20089;-58
2021/01/18 05:58:01;;;;;;;45.80;11.82;;;;;;;;;;5057302;28;20060;-57
2021/01/18 06:00:37;;;;;;;47.65;12.57;;;;;;;;;;5072789;28;20029;-62
2021/01/18 06:03:07;;;;;;;47.55;11.25;;;;;;;;;;5094832;28;20032;-58
2021/01/18 06:05:33;;;;;;;38.58;12.73;;;;;;;;;;5092803;28;20040;-58
2021/01/18 06:08:09;;;;;;;35.85;11.23;;;;;;;;;;5094826;28;20040;-58
2021/01/18 06:10:34;;;;;;;40.30;11.20;;;;;;;;;;5092938;28;20058;-58
2021/01/18 06:13:00;;;;;;;32.67;11.13;;;;;;;;;;5076615;28;20032;-58
2021/01/18 06:15:26;;;;;;;44.10;13.02;;;;;;;;;;5093792;28;20044;-58
2021/01/18 06:17:54;;;;;;;40.08;13.88;;;;;;;;;;5093781;28;20341;-59
2021/01/18 06:20:19;;;;;;;42.53;12.10;;;;;;;;;;5093615;28;20032;-58
2021/01/18 06:22:48;;;;;;;53.27;12.43;;;;;;;;;;5076620;28;20146;-58
2021/01/18 06:25:14;;;;;;;36.35;11.90;;;;;;;;;;5093773;28;20038;-58
2021/01/18 06:27:39;;;;;;;49.67;13.03;;;;;;;;;;5093027;28;20024;-59
2021/01/18 06:30:18;;;;;;;30.03;11.30;;;;;;;;;;5076026;28;20028;-58
2021/01/18 06:32:44;;;;;;;41.13;13.23;;;;;;;;;;5094626;28;20249;-61
2021/01/18 06:35:09;;;;;;;40.83;12.37;;;;;;;;;;5091871;28;20549;-59
2021/01/18 06:37:36;;;;;;;47.63;13.77;;;;;;;;;;5092413;28;20119;-59
2021/01/18 06:40:03;;;;;;;36.35;13.80;;;;;;;;;;5094168;28;20325;-60
2021/01/18 06:42:29;;;;;;;51.08;13.32;;;;;;;;;;5092455;28;20467;-59
2021/01/18 06:44:55;;;;;;;35.92;12.52;;;;;;;;;;5092851;28;20035;-59
2021/01/18 06:47:23;;;;;;;49.20;13.93;;;;;;;;;;5093151;28;20066;-58
2021/01/18 06:49:52;;;;;;;52.60;12.70;;;;;;;;;;5093744;28;20024;-58
2021/01/18 06:52:22;;;;;;;39.25;12.73;;;;;;;;;;5093645;28;20042;-58
2021/01/18 06:54:51;;;;;;;48.90;14.23;;;;;;;;;;5094084;28;20035;-59
2021/01/18 06:57:17;;;;;;;36.75;12.93;;;;;;;;;;5092007;28;20036;-58
2021/01/18 06:59:52;;;;;;;39.70;13.40;;;;;;;;;;5093504;28;20036;-59
2021/01/18 07:02:26;;;;;;;45.28;13.32;;;;;;;;;;5082717;28;20036;-57
2021/01/18 07:05:03;;;;;;;42.75;13.23;;;;;;;;;;5078697;28;20040;-58
2021/01/18 07:07:31;;;;;;;37.38;13.73;;;;;;;;;;5074190;28;20067;-58
2021/01/18 07:09:58;;;;;;;40.88;14.05;;;;;;;;;;5092152;28;20085;-57
2021/01/18 07:12:23;;;;;;;;;;;;;;;;;;5092038;28;20077;-57
2021/01/18 07:14:56;;;;;;;48.40;12.63;;;;;;;;;;5091866;28;20003;-57
2021/01/18 07:17:23;;;;;;;41.35;12.95;;;;;;;;;;5092365;28;20460;-57
2021/01/18 07:19:57;;;;;;;45.03;12.63;;;;;;;;;;5092329;28;20078;-58
2021/01/18 07:22:25;;;;;;;38.65;13.00;;;;;;;;;;5081271;28;20035;-57
2021/01/18 07:24:57;;;;;;;40.13;11.43;;;;;;;;;;5083193;28;20036;-58
2021/01/18 07:27:24;;;;;;;36.67;11.93;;;;;;;;;;5080535;28;20025;-58
2021/01/18 07:29:49;;;;;;;34.08;11.88;;;;;;;;;;5088909;28;20417;-58
2021/01/18 07:32:15;;;;;;;39.70;13.47;;;;;;;;;;5093338;28;20150;-59
2021/01/18 07:34:40;;;;;;;52.40;13.53;;;;;;;;;;5089889;28;20148;-58
2021/01/18 07:37:07;;;;;;;38.80;12.63;;;;;;;;;;5085490;28;20028;-59
2021/01/18 07:39:33;;;;;;;41.55;13.75;;;;;;;;;;5086182;28;20036;-57
2021/01/18 07:41:59;;;;;;;38.25;14.60;;;;;;;;;;5092713;28;20605;-58
2021/01/18 07:44:33;;;;;;;54.45;14.50;;;;;;;;;;5092175;28;20115;-58
2021/01/18 07:46:59;;;;;;;32.45;13.18;;;;;;;;;;5092664;28;20106;-57
2021/01/18 07:49:24;;;;;;;23.55;9.68;;;;;;;;;;5090588;28;20059;-57
2021/01/18 07:51:49;;;;;;;37.63;12.10;;;;;;;;;;5091969;28;20051;-58
2021/01/18 07:54:44;;;;;;;38.17;13.30;;;;;;;;;;5087814;28;20051;-59
2021/01/18 07:57:28;;;;;;;40.30;12.93;;;;;;;;;;5059286;28;20032;-59
2021/01/18 08:00:12;;;;;;;38.55;13.27;;;;;;;;;;5075013;28;20309;-59
2021/01/18 08:02:38;;;;;;;34.47;13.15;;;;;;;;;;5072991;28;20144;-58
2021/01/18 08:05:36;;;;;;;43.90;13.07;;;;;;;;;;5072490;28;20108;-58
2021/01/18 08:08:02;;;;;;;46.17;13.27;;;;;;;;;;5036401;28;20083;-58
2021/01/18 08:10:45;;;;;;;44.95;15.30;;;;;;;;;;5091672;28;20039;-59
2021/01/18 08:13:47;;;;;;;39.08;14.75;;;;;;;;;;5099837;28;20111;-59
2021/01/18 08:16:12;;;;;;;38.70;13.30;;;;;;;;;;5021189;28;20056;-59
2021/01/18 08:18:48;;;;;;;45.87;13.83;;;;;;;;;;5058430;28;20460;-59
2021/01/18 08:21:32;;;;;;;31.25;13.10;;;;;;;;;;5071236;28;20032;-58
2021/01/18 08:23:58;;;;;;;48.75;13.68;;;;;;;;;;5071529;28;20066;-59
2021/01/18 08:26:23;;;;;;;33.70;13.97;;;;;;;;;;5070401;28;20425;-56
2021/01/18 08:28:48;;;;;;;42.70;13.47;;;;;;;;;;5071392;28;20794;-59
2021/01/18 08:31:14;;;;;;;31.67;12.63;;;;;;;;;;5071475;28;20071;-58
2021/01/18 08:33:40;;;;;;;38.80;13.40;;;;;;;;;;5069601;28;20033;-58
2021/01/18 08:36:05;;;;;;;40.35;14.52;;;;;;;;;;5070699;28;20472;-59
2021/01/18 08:38:31;;;;;;;34.47;13.80;;;;;;;;;;5070715;28;20028;-58
2021/01/18 08:41:04;;;;;;;39.40;12.77;;;;;;;;;;5070911;28;20392;-58
2021/01/18 08:43:45;;;;;;;35.30;13.35;;;;;;;;;;5070404;28;20063;-57
2021/01/18 08:46:46;;;;;;;40.10;13.80;;;;;;;;;;5079623;28;20020;-58
2021/01/18 08:49:20;;;;;;;32.13;12.50;;;;;;;;;;5028581;28;20029;-58
2021/01/18 08:51:46;;;;;;;35.10;12.18;;;;;;;;;;5081689;28;20087;-58
2021/01/18 08:54:12;;;;;;;53.92;13.15;;;;;;;;;;5073799;28;20036;-59
2021/01/18 08:56:39;;;;;;;30.87;12.00;;;;;;;;;;5080720;28;20070;-57
2021/01/18 08:59:14;;;;;;;33.92;11.80;;;;;;;;;;5069101;28;20031;-57
2021/01/18 09:01:39;;;;;;;37.80;11.73;;;;;;;;;;5072362;28;20476;-57
2021/01/18 09:04:05;;;;;;;43.17;12.73;;;;;;;;;;5074441;28;20039;-58
2021/01/18 09:06:31;;;;;;;28.02;10.18;;;;;;;;;;5072829;28;20102;-59
2021/01/18 09:09:07;;;;;;;44.07;11.47;;;;;;;;;;5073207;28;20032;-57
2021/01/18 09:11:33;;;;;;;30.95;10.63;;;;;;;;;;5073145;28;20032;-59
2021/01/18 09:13:58;;;;;;;33.70;9.73;;;;;;;;;;5073054;28;20535;-58
2021/01/18 09:16:23;;;;;;;33.27;11.53;;;;;;;;;;5074412;28;20082;-56
2021/01/18 09:18:49;;;;;;;31.13;10.27;;;;;;;;;;5072661;28;20040;-58
2021/01/18 09:21:16;;;;;;;37.93;12.07;;;;;;;;;;5073157;28;20127;-59
2021/01/18 09:23:42;;;;;;;40.50;11.65;;;;;;;;;;5072846;28;20131;-58
2021/01/18 09:26:13;;;;;;;31.63;10.65;;;;;;;;;;5074066;28;20194;-59
2021/01/18 09:28:40;;;;;;;28.75;9.63;;;;;;;;;;5073894;28;20033;-57
2021/01/18 09:31:06;;;;;;;35.67;9.68;;;;;;;;;;5073164;28;20093;-58
2021/01/18 09:33:31;;;;;;;31.35;9.70;;;;;;;;;;5074247;28;20024;-58
2021/01/18 09:35:56;;;;;;;36.67;11.87;;;;;;;;;;5075253;28;20028;-57
2021/01/18 09:38:22;;;;;;;32.43;10.33;;;;;;;;;;5074573;28;20033;-58
2021/01/18 09:40:47;;;;;;;35.43;9.90;;;;;;;;;;5073237;28;20636;-57
2021/01/18 09:43:17;;;;;;;28.00;10.00;;;;;;;;;;5074509;28;20060;-58
2021/01/18 09:45:42;;;;;;;23.58;9.45;;;;;;;;;;5072392;28;20032;-57
2021/01/18 09:48:09;;;;;;;27.70;9.60;;;;;;;;;;5073568;28;20035;-56
2021/01/18 09:50:35;;;;;;;28.65;10.00;;;;;;;;;;5073681;28;20102;-58
2021/01/18 09:53:03;;;;;;;42.03;13.13;;;;;;;;;;5057569;28;20078;-59
2021/01/18 09:55:37;;;;;;;33.15;9.30;;;;;;;;;;5073967;28;20036;-58
2021/01/18 09:58:38;;;;;;;23.65;10.00;;;;;;;;;;5069831;28;20111;-57
2021/01/18 10:01:07;;;;;;;22.75;8.40;;;;;;;;;;5005605;28;20030;-57
2021/01/18 10:03:36;;;;;;;32.35;9.02;;;;;;;;;;5056688;28;20043;-61
2021/01/18 10:06:10;;;;;;;46.20;9.02;;;;;;;;;;5073333;28;20049;-55
2021/01/18 10:08:38;;;;;;;29.20;9.68;;;;;;;;;;5077234;28;20033;-57
2021/01/18 10:11:04;;;;;;;19.73;8.80;;;;;;;;;;5077842;28;20033;-58
2021/01/18 10:13:29;;;;;;;18.13;8.65;;;;;;;;;;5072654;28;20074;-55
2021/01/18 10:16:05;;;;;;;27.47;9.03;;;;;;;;;;5073440;28;20032;-57
2021/01/18 10:18:47;;;;;;;37.45;9.70;;;;;;;;;;5088899;28;20085;-59
2021/01/18 10:21:12;;;;;;;25.65;8.85;;;;;;;;;;5092099;28;20035;-58
2021/01/18 10:23:39;;;;;;;31.73;10.18;;;;;;;;;;5092025;28;20032;-56
2021/01/18 10:26:04;;;;;;;;;;;;;;;;;;5092349;28;20056;-58
2021/01/18 10:28:31;;;;;;;21.77;7.10;;;;;;;;;;5093010;28;20276;-57
2021/01/18 10:30:57;;;;;;;31.05;7.72;;;;;;;;;;5082902;28;20039;-58
2021/01/18 10:33:22;;;;;;;24.75;8.43;;;;;;;;;;5072396;28;20032;-58
2021/01/18 10:35:47;;;;;;;22.40;7.80;;;;;;;;;;5086101;28;20568;-58
2021/01/18 10:38:14;;;;;;;22.63;7.73;;;;;;;;;;5096371;28;20089;-59
2021/01/18 10:40:40;;;;;;;35.80;9.45;;;;;;;;;;5094985;28;20074;-58
2021/01/18 10:43:06;;;;;;;18.80;7.85;;;;;;;;;;5080537;28;20029;-58
2021/01/18 10:45:32;;;;;;;19.70;7.55;;;;;;;;;;5091239;28;20036;-56
2021/01/18 10:48:00;;;;;;;22.33;8.75;;;;;;;;;;5094546;28;20107;-58
2021/01/18 10:50:26;;;;;;;22.27;7.45;;;;;;;;;;5089466;28;20035;-57
2021/01/18 10:52:59;;;;;;;24.98;8.32;;;;;;;;;;5083159;28;20028;-58
2021/01/18 10:55:25;;;;;;;23.35;7.40;;;;;;;;;;5072371;28;20043;-57
2021/01/18 10:57:52;;;;;;;18.87;7.40;;;;;;;;;;5090425;28;20032;-56
2021/01/18 11:00:22;;;;;;;29.98;7.90;;;;;;;;;;5085140;28;20028;-56
2021/01/18 11:03:07;;;;;;;25.63;8.93;;;;;;;;;;5081411;28;20427;-58
2021/01/18 11:05:37;;;;;;;15.35;6.45;;;;;;;;;;5081620;28;20471;-56
2021/01/18 11:08:06;;;;;;;18.02;8.20;;;;;;;;;;5081432;28;20041;-58
2021/01/18 11:10:34;;;;;;;25.20;8.68;;;;;;;;;;5062356;28;20527;-56
2021/01/18 11:13:01;;;;;;;26.75;7.68;;;;;;;;;;5081807;28;20073;-56
2021/01/18 11:15:26;;;;;;;;;;;;;;;;;;5082515;28;20047;-56
2021/01/18 11:17:51;;;;;;;25.03;8.23;;;;;;;;;;5078398;28;19908;-58
2021/01/18 11:20:24;;;;;;;23.58;7.80;;;;;;;;;;5062509;28;20032;-59
2021/01/18 11:22:50;;;;;;;18.60;7.85;;;;;;;;;;5077671;28;20029;-58
2021/01/18 11:25:15;;;;;;;15.97;7.30;;;;;;;;;;5062357;28;20032;-59
2021/01/18 11:27:40;;;;;;;29.03;7.17;;;;;;;;;;5082252;28;20041;-58
2021/01/18 11:30:06;;;;;;;25.17;8.73;;;;;;;;;;5081015;28;20127;-59
2021/01/18 11:32:32;;;;;;;21.10;7.45;;;;;;;;;;5082436;28;20081;-57
2021/01/18 11:34:57;;;;;;;19.40;7.13;;;;;;;;;;5079927;28;20111;-57
2021/01/18 11:37:22;;;;;;;24.20;6.30;;;;;;;;;;5079359;28;20039;-59
2021/01/18 11:39:48;;;;;;;17.80;6.70;;;;;;;;;;5069891;28;20033;-59
2021/01/18 11:42:13;;;;;;;16.47;6.73;;;;;;;;;;5075555;28;20106;-59
2021/01/18 11:44:39;;;;;;;27.30;7.77;;;;;;;;;;5091437;28;20386;-58
2021/01/18 11:47:04;;;;;;;24.58;6.57;;;;;;;;;;5091237;28;20040;-59
2021/01/18 11:49:30;;;;;;;25.93;7.67;;;;;;;;;;5087419;28;20031;-59
2021/01/18 11:51:57;;;;;;;18.00;6.67;;;;;;;;;;5090539;28;20502;-59
2021/01/18 11:54:23;;;;;;;21.77;6.20;;;;;;;;;;5091246;28;20146;-59
2021/01/18 11:56:48;;;;;;;17.33;7.60;;;;;;;;;;5091149;28;20447;-61
2021/01/18 11:59:14;;;;;;;21.37;5.87;;;;;;;;;;5092444;28;20036;-59
2021/01/18 12:01:39;;;;;;;26.30;5.83;;;;;;;;;;5082906;28;20036;-57
2021/01/18 12:04:05;;;;;;;20.48;6.43;;;;;;;;;;5075964;28;20033;-59
2021/01/18 12:06:34;;;;;;;18.83;5.53;;;;;;;;;;5071335;28;20040;-58
2021/01/18 12:08:59;;;;;;;17.20;5.50;;;;;;;;;;5070568;28;20028;-59
2021/01/18 12:11:25;;;;;;;27.87;6.17;;;;;;;;;;5071239;28;20395;-59
2021/01/18 12:13:50;;;;;;;20.00;6.13;;;;;;;;;;5070900;28;20261;-58
2021/01/18 12:16:23;;;;;;;21.37;6.67;;;;;;;;;;5070929;28;20031;-58
2021/01/18 12:18:48;;;;;;;29.52;7.35;;;;;;;;;;5070787;28;20024;-58
2021/01/18 12:21:13;;;;;;;17.37;6.47;;;;;;;;;;5070599;28;20111;-58
2021/01/18 12:23:39;;;;;;;21.60;7.13;;;;;;;;;;5069672;28;20029;-58
2021/01/18 12:26:04;;;;;;;27.30;6.17;;;;;;;;;;5069981;28;20025;-58
2021/01/18 12:28:29;;;;;;;29.00;6.57;;;;;;;;;;5072098;28;20032;-59
2021/01/18 12:30:55;;;;;;;17.90;5.90;;;;;;;;;;5070000;28;20266;-56
2021/01/18 12:33:20;;;;;;;19.83;6.40;;;;;;;;;;5071205;28;20067;-58
2021/01/18 12:35:46;;;;;;;27.47;6.50;;;;;;;;;;5070464;28;20335;-59
2021/01/18 12:38:11;;;;;;;25.77;7.27;;;;;;;;;;5071757;28;20051;-59
2021/01/18 12:40:36;;;;;;;19.60;6.43;;;;;;;;;;5071267;28;20585;-55
2021/01/18 12:43:02;;;;;;;19.70;6.37;;;;;;;;;;5071115;28;20384;-57
2021/01/18 12:45:29;;;;;;;19.02;6.22;;;;;;;;;;5053848;28;20060;-58
2021/01/18 12:47:54;;;;;;;16.25;6.13;;;;;;;;;;5069817;28;20486;-58
2021/01/18 12:50:20;;;;;;;20.07;6.17;;;;;;;;;;5071149;28;20048;-58
2021/01/18 12:52:46;;;;;;;15.87;6.10;;;;;;;;;;5052663;28;20029;-59
2021/01/18 12:55:12;;;;;;;21.50;6.15;;;;;;;;;;5071025;28;20089;-58
2021/01/18 12:57:37;;;;;;;16.50;4.63;;;;;;;;;;5080730;28;20036;-57
2021/01/18 13:00:04;;;;;;;15.80;4.63;;;;;;;;;;5070929;28;20025;-58
2021/01/18 13:02:29;;;;;;;;;;;;;;;;;;5074700;28;20090;-58
2021/01/18 13:04:55;;;;;;;16.70;4.77;;;;;;;;;;5075392;28;19941;-60
2021/01/18 13:07:20;;;;;;;18.70;4.20;;;;;;;;;;5071305;28;20053;-58
2021/01/18 13:09:45;;;;;;;17.70;5.50;;;;;;;;;;5068956;28;20478;-58
2021/01/18 13:12:11;;;;;;;24.10;5.10;;;;;;;;;;5070054;28;20381;-59
2021/01/18 13:14:36;;;;;;;18.73;3.17;;;;;;;;;;5070010;28;20225;-59
2021/01/18 13:17:01;;;;;;;28.43;4.87;;;;;;;;;;5068909;28;20025;-59
2021/01/18 13:19:27;;;;;;;19.47;4.33;;;;;;;;;;5070718;28;20063;-59
2021/01/18 13:21:53;;;;;;;21.30;6.07;;;;;;;;;;5052887;28;20464;-59
2021/01/18 13:24:19;;;;;;;16.63;3.90;;;;;;;;;;5053690;28;20452;-59
2021/01/18 13:26:45;;;;;;;21.48;4.40;;;;;;;;;;5072322;28;20111;-57
2021/01/18 13:29:10;;;;;;;13.23;3.87;;;;;;;;;;5073043;28;20119;-58
2021/01/18 13:31:36;;;;;;;17.43;3.63;;;;;;;;;;5091170;28;20070;-58
2021/01/18 13:34:01;;;;;;;19.90;5.18;;;;;;;;;;5072607;28;20086;-59
2021/01/18 13:36:28;;;;;;;13.90;4.40;;;;;;;;;;5070639;28;20037;-59
2021/01/18 13:38:54;;;;;;;24.92;4.40;;;;;;;;;;5069983;28;20025;-58
2021/01/18 13:41:20;;;;;;;15.23;4.45;;;;;;;;;;5070651;28;20051;-59
2021/01/18 13:43:46;;;;;;;17.27;4.32;;;;;;;;;;5070100;28;20086;-56
2021/01/18 13:46:15;;;;;;;22.40;4.20;;;;;;;;;;5074461;28;20024;-58
2021/01/18 13:48:41;;;;;;;17.55;3.42;;;;;;;;;;5085130;28;20494;-62
2021/01/18 13:51:07;;;;;;;13.45;3.90;;;;;;;;;;5072300;28;20044;-58
2021/01/18 13:53:32;;;;;;;14.43;3.75;;;;;;;;;;5073203;28;20039;-59
2021/01/18 13:55:58;;;;;;;18.50;4.77;;;;;;;;;;5072573;28;20052;-58
2021/01/18 13:58:24;;;;;;;17.02;3.92;;;;;;;;;;5074119;28;20055;-58
2021/01/18 14:00:49;;;;;;;15.70;4.80;;;;;;;;;;5073405;28;20106;-57
2021/01/18 14:03:14;;;;;;;22.20;5.97;;;;;;;;;;5073150;28;20412;-58
2021/01/18 14:05:40;;;;;;;17.93;5.27;;;;;;;;;;5073723;28;20044;-59
2021/01/18 14:08:06;;;;;;;16.65;4.45;;;;;;;;;;5069342;28;20375;-59
2021/01/18 14:10:31;;;;;;;18.90;5.00;;;;;;;;;;5074136;28;20036;-59
2021/01/18 14:12:56;;;;;;;26.17;5.10;;;;;;;;;;5073687;28;20065;-57
2021/01/18 14:15:22;;;;;;;24.93;5.40;;;;;;;;;;5074109;28;20033;-58
2021/01/18 14:17:47;;;;;;;18.87;5.30;;;;;;;;;;5071782;28;20040;-58
2021/01/18 14:20:13;;;;;;;16.77;4.70;;;;;;;;;;5072257;28;20036;-58
2021/01/18 14:22:38;;;;;;;20.80;5.43;;;;;;;;;;5074271;28;20036;-59
2021/01/18 14:25:04;;;;;;;33.43;5.27;;;;;;;;;;5073167;28;20072;-58
2021/01/18 14:27:29;;;;;;;17.43;5.20;;;;;;;;;;5074111;28;20024;-58
2021/01/18 14:29:54;;;;;;;17.27;5.60;;;;;;;;;;5072564;28;20034;-59
2021/01/18 14:32:20;;;;;;;18.10;5.60;;;;;;;;;;5072927;28;20516;-58
2021/01/18 14:34:45;;;;;;;22.90;6.10;;;;;;;;;;5089605;28;20443;-57